sensor_id;sensor_type;location;lat;lon;timestamp;pressure;altitude;pressure_sealevel;temperature;humidity
65760;BME280;52496;51.082;5.066;2023-04-08T00:00:28;102156.88;;;8.33;100.00
65760;BME280;52496;51.082;5.066;2023-04-08T00:02:59;102154.38;;;8.31;100.00
65760;BME280;52496;51.082;5.066;2023-04-08T00:05:30;102164.88;;;8.33;100.00
65760;BME280;52496;51.082;5.066;2023-04-08T00:08:01;102157.16;;;8.30;100.00
65760;BME280;52496;51.082;5.066;2023-04-08T00:10:31;102156.44;;;8.27;100.00
65760;BME280;52496;51.082;5.066;2023-04-08T00:13:02;102161.78;;;8.27;100.00
65760;BME280;52496;51.082;5.066;2023-04-08T00:15:32;102158.41;;;8.25;100.00
65760;BME280;52496;51.082;5.066;2023-04-08T00:18:03;102167.25;;;8.26;100.00
65760;BME280;52496;51.082;5.066;2023-04-08T00:20:34;102154.91;;;8.25;100.00
65760;BME280;52496;51.082;5.066;2023-04-08T00:23:04;102156.72;;;8.24;100.00
65760;BME280;52496;51.082;5.066;2023-04-08T00:25:35;102156.72;;;8.24;100.00
65760;BME280;52496;51.082;5.066;2023-04-08T00:28:05;102158.53;;;8.24;100.00
65760;BME280;52496;51.082;5.066;2023-04-08T00:30:36;102154.06;;;8.24;100.00
65760;BME280;52496;51.082;5.066;2023-04-08T00:33:07;102152.38;;;8.23;100.00
65760;BME280;52496;51.082;5.066;2023-04-08T00:35:38;102159.38;;;8.24;100.00
65760;BME280;52496;51.082;5.066;2023-04-08T00:38:08;102164.03;;;8.22;100.00
65760;BME280;52496;51.082;5.066;2023-04-08T00:40:39;102158.81;;;8.21;100.00
65760;BME280;52496;51.082;5.066;2023-04-08T00:43:10;102161.63;;;8.19;100.00
65760;BME280;52496;51.082;5.066;2023-04-08T00:45:40;102165.25;;;8.18;100.00
65760;BME280;52496;51.082;5.066;2023-04-08T00:48:11;102173.25;;;8.18;100.00
65760;BME280;52496;51.082;5.066;2023-04-08T00:50:44;102167.91;;;8.18;100.00
65760;BME280;52496;51.082;5.066;2023-04-08T00:53:17;102169.63;;;8.19;100.00
65760;BME280;52496;51.082;5.066;2023-04-08T00:55:48;102168.78;;;8.19;100.00
65760;BME280;52496;51.082;5.066;2023-04-08T00:58:18;102176.63;;;8.20;100.00
65760;BME280;52496;51.082;5.066;2023-04-08T01:00:54;102169.63;;;8.19;100.00
65760;BME280;52496;51.082;5.066;2023-04-08T01:03:56;102173.13;;;8.20;100.00
65760;BME280;52496;51.082;5.066;2023-04-08T01:06:34;102170.59;;;8.18;100.00
65760;BME280;52496;51.082;5.066;2023-04-08T01:09:12;102176.91;;;8.17;100.00
65760;BME280;52496;51.082;5.066;2023-04-08T01:11:43;102168.19;;;8.15;100.00
65760;BME280;52496;51.082;5.066;2023-04-08T01:14:19;102180.56;;;8.16;100.00
65760;BME280;52496;51.082;5.066;2023-04-08T01:16:55;102172.56;;;8.16;100.00
65760;BME280;52496;51.082;5.066;2023-04-08T01:19:33;102168.19;;;8.15;100.00
65760;BME280;52496;51.082;5.066;2023-04-08T01:25:05;102178.84;;;8.15;100.00
65760;BME280;52496;51.082;5.066;2023-04-08T01:27:38;102177.19;;;8.14;100.00
65760;BME280;52496;51.082;5.066;2023-04-08T01:30:10;102178.16;;;8.13;100.00
65760;BME280;52496;51.082;5.066;2023-04-08T01:32:42;102183.34;;;8.15;100.00
65760;BME280;52496;51.082;5.066;2023-04-08T01:35:14;102180.84;;;8.13;100.00
65760;BME280;52496;51.082;5.066;2023-04-08T01:37:47;102188.69;;;8.15;100.00
65760;BME280;52496;51.082;5.066;2023-04-08T01:40:19;102178.00;;;8.15;100.00
65760;BME280;52496;51.082;5.066;2023-04-08T01:42:53;102183.34;;;8.15;100.00
65760;BME280;52496;51.082;5.066;2023-04-08T01:45:25;102187.84;;;8.14;100.00
65760;BME280;52496;51.082;5.066;2023-04-08T01:47:59;102180.84;;;8.13;100.00
65760;BME280;52496;51.082;5.066;2023-04-08T01:50:30;102187.84;;;8.14;100.00
65760;BME280;52496;51.082;5.066;2023-04-08T01:53:05;102187.00;;;8.14;100.00
65760;BME280;52496;51.082;5.066;2023-04-08T01:55:39;102184.44;;;8.12;100.00
65760;BME280;52496;51.082;5.066;2023-04-08T01:58:17;102190.66;;;8.13;100.00
65760;BME280;52496;51.082;5.066;2023-04-08T02:00:50;102188.09;;;8.11;100.00
65760;BME280;52496;51.082;5.066;2023-04-08T02:03:24;102190.78;;;8.11;100.00
65760;BME280;52496;51.082;5.066;2023-04-08T02:05:56;102183.78;;;8.10;100.00
65760;BME280;52496;51.082;5.066;2023-04-08T02:08:27;102192.72;;;8.09;100.00
65760;BME280;52496;51.082;5.066;2023-04-08T02:10:57;102190.06;;;8.09;100.00
65760;BME280;52496;51.082;5.066;2023-04-08T02:13:29;102195.38;;;8.09;100.00
65760;BME280;52496;51.082;5.066;2023-04-08T02:16:10;102187.53;;;8.08;100.00
65760;BME280;52496;51.082;5.066;2023-04-08T02:18:52;102181.38;;;8.07;100.00
65760;BME280;52496;51.082;5.066;2023-04-08T02:21:42;102186.69;;;8.07;100.00
65760;BME280;52496;51.082;5.066;2023-04-08T02:24:15;102189.38;;;8.07;100.00
65760;BME280;52496;51.082;5.066;2023-04-08T02:26:48;102191.03;;;8.08;100.00
65760;BME280;52496;51.082;5.066;2023-04-08T02:29:21;102182.22;;;8.08;100.00
65760;BME280;52496;51.082;5.066;2023-04-08T02:31:52;102199.88;;;8.09;100.00
65760;BME280;52496;51.082;5.066;2023-04-08T02:34:23;102190.06;;;8.09;100.00
65760;BME280;52496;51.082;5.066;2023-04-08T02:36:55;102190.06;;;8.09;100.00
65760;BME280;52496;51.082;5.066;2023-04-08T02:39:32;102190.06;;;8.09;100.00
65760;BME280;52496;51.082;5.066;2023-04-08T02:42:03;102190.06;;;8.09;100.00
65760;BME280;52496;51.082;5.066;2023-04-08T02:44:34;102188.38;;;8.08;100.00
65760;BME280;52496;51.082;5.066;2023-04-08T02:47:05;102192.88;;;8.08;100.00
65760;BME280;52496;51.082;5.066;2023-04-08T02:49:36;102194.53;;;8.09;100.00
65760;BME280;52496;51.082;5.066;2023-04-08T02:52:06;102201.69;;;8.08;100.00
65760;BME280;52496;51.082;5.066;2023-04-08T02:54:37;102193.72;;;8.08;100.00
65760;BME280;52496;51.082;5.066;2023-04-08T02:57:07;102199.03;;;8.08;100.00
65760;BME280;52496;51.082;5.066;2023-04-08T02:59:38;102205.19;;;8.09;100.00
65760;BME280;52496;51.082;5.066;2023-04-08T03:02:10;102202.53;;;8.09;100.00
65760;BME280;52496;51.082;5.066;2023-04-08T03:04:40;102199.75;;;8.10;100.00
65760;BME280;52496;51.082;5.066;2023-04-08T03:07:11;102198.75;;;8.11;100.00
65760;BME280;52496;51.082;5.066;2023-04-08T03:09:42;102201.56;;;8.10;100.00
65760;BME280;52496;51.082;5.066;2023-04-08T03:12:12;102190.06;;;8.09;100.00
65760;BME280;52496;51.082;5.066;2023-04-08T03:14:43;102196.25;;;8.10;100.00
65760;BME280;52496;51.082;5.066;2023-04-08T03:17:13;102195.53;;;8.08;100.00
65760;BME280;52496;51.082;5.066;2023-04-08T03:19:44;102195.66;;;8.06;100.00
65760;BME280;52496;51.082;5.066;2023-04-08T03:22:15;102195.66;;;8.06;100.00
65760;BME280;52496;51.082;5.066;2023-04-08T03:24:47;102197.63;;;8.04;100.00
65760;BME280;52496;51.082;5.066;2023-04-08T03:27:17;102205.75;;;8.02;100.00
65760;BME280;52496;51.082;5.066;2023-04-08T03:29:48;102199.56;;;8.02;100.00
65760;BME280;52496;51.082;5.066;2023-04-08T03:32:21;102205.75;;;8.02;100.00
65760;BME280;52496;51.082;5.066;2023-04-08T03:34:52;102203.22;;;8.01;100.00
65760;BME280;52496;51.082;5.066;2023-04-08T03:37:23;102203.22;;;8.01;100.00
65760;BME280;52496;51.082;5.066;2023-04-08T03:39:54;102202.25;;;8.02;100.00
65760;BME280;52496;51.082;5.066;2023-04-08T03:42:24;102203.22;;;8.01;100.00
65760;BME280;52496;51.082;5.066;2023-04-08T03:44:55;102213.88;;;8.01;100.00
65760;BME280;52496;51.082;5.066;2023-04-08T03:47:26;102205.06;;;8.00;100.00
65760;BME280;52496;51.082;5.066;2023-04-08T03:49:57;102204.34;;;7.98;100.00
65760;BME280;52496;51.082;5.066;2023-04-08T03:52:27;102203.50;;;7.98;100.00
65760;BME280;52496;51.082;5.066;2023-04-08T03:54:58;102207.97;;;7.97;100.00
65760;BME280;52496;51.082;5.066;2023-04-08T03:57:28;102204.44;;;7.97;100.00
65760;BME280;52496;51.082;5.066;2023-04-08T03:59:59;102207.13;;;7.97;100.00
65760;BME280;52496;51.082;5.066;2023-04-08T04:02:30;102212.59;;;7.95;100.00
65760;BME280;52496;51.082;5.066;2023-04-08T04:05:01;102215.38;;;7.94;100.00
65760;BME280;52496;51.082;5.066;2023-04-08T04:07:31;102214.53;;;7.93;100.00
65760;BME280;52496;51.082;5.066;2023-04-08T04:10:02;102210.19;;;7.92;100.00
65760;BME280;52496;51.082;5.066;2023-04-08T04:12:32;102214.69;;;7.92;100.00
65760;BME280;52496;51.082;5.066;2023-04-08T04:15:04;102212.03;;;7.92;100.00
65760;BME280;52496;51.082;5.066;2023-04-08T04:17:34;102211.31;;;7.90;100.00
65760;BME280;52496;51.082;5.066;2023-04-08T04:20:05;102213.25;;;7.88;100.00
65760;BME280;52496;51.082;5.066;2023-04-08T04:22:36;102207.34;;;7.84;100.00
65760;BME280;52496;51.082;5.066;2023-04-08T04:25:07;102204.22;;;7.79;100.00
65760;BME280;52496;51.082;5.066;2023-04-08T04:27:38;102212.63;;;7.74;100.00
65760;BME280;52496;51.082;5.066;2023-04-08T04:30:35;102229.13;;;7.68;100.00
65760;BME280;52496;51.082;5.066;2023-04-08T04:33:11;102229.50;;;7.64;100.00
65760;BME280;52496;51.082;5.066;2023-04-08T04:35:41;102231.75;;;7.58;100.00
65760;BME280;52496;51.082;5.066;2023-04-08T04:38:12;102232.97;;;7.54;100.00
65760;BME280;52496;51.082;5.066;2023-04-08T04:40:43;102236.88;;;7.50;100.00
65760;BME280;52496;51.082;5.066;2023-04-08T04:43:13;102230.13;;;7.46;100.00
65760;BME280;52496;51.082;5.066;2023-04-08T04:45:47;102235.81;;;7.42;100.00
65760;BME280;52496;51.082;5.066;2023-04-08T04:48:17;102243.22;;;7.38;100.00
65760;BME280;52496;51.082;5.066;2023-04-08T04:50:55;102245.16;;;7.36;100.00
65760;BME280;52496;51.082;5.066;2023-04-08T04:53:26;102247.81;;;7.36;100.00
65760;BME280;52496;51.082;5.066;2023-04-08T04:55:56;102253.88;;;7.38;100.00
65760;BME280;52496;51.082;5.066;2023-04-08T04:58:27;102255.44;;;7.41;100.00
65760;BME280;52496;51.082;5.066;2023-04-08T05:00:58;102253.50;;;7.43;100.00
65760;BME280;52496;51.082;5.066;2023-04-08T05:03:28;102254.19;;;7.45;100.00
65760;BME280;52496;51.082;5.066;2023-04-08T05:05:59;102260.34;;;7.45;100.00
65760;BME280;52496;51.082;5.066;2023-04-08T05:08:29;102255.66;;;7.49;100.00
65760;BME280;52496;51.082;5.066;2023-04-08T05:11:00;102252.72;;;7.52;100.00
65760;BME280;52496;51.082;5.066;2023-04-08T05:13:33;102261.28;;;7.55;100.00
65760;BME280;52496;51.082;5.066;2023-04-08T05:16:04;102261.88;;;7.59;100.00
65760;BME280;52496;51.082;5.066;2023-04-08T05:18:35;102266.94;;;7.62;100.00
65760;BME280;52496;51.082;5.066;2023-04-08T05:21:06;102267.66;;;7.64;100.00
65760;BME280;52496;51.082;5.066;2023-04-08T05:23:36;102268.09;;;7.69;100.00
65760;BME280;52496;51.082;5.066;2023-04-08T05:26:07;102269.53;;;7.73;100.00
65760;BME280;52496;51.082;5.066;2023-04-08T05:28:38;102270.97;;;7.77;100.00
65760;BME280;52496;51.082;5.066;2023-04-08T05:31:08;102274.19;;;7.81;100.00
65760;BME280;52496;51.082;5.066;2023-04-08T05:33:41;102271.28;;;7.84;100.00
65760;BME280;52496;51.082;5.066;2023-04-08T05:36:12;102272.09;;;7.85;100.00
65760;BME280;52496;51.082;5.066;2023-04-08T05:38:42;102273.09;;;7.84;100.00
65760;BME280;52496;51.082;5.066;2023-04-08T05:41:13;102272.38;;;7.81;100.00
65760;BME280;52496;51.082;5.066;2023-04-08T05:43:44;102277.69;;;7.81;100.00
65760;BME280;52496;51.082;5.066;2023-04-08T05:46:15;102271.28;;;7.84;100.00
65760;BME280;52496;51.082;5.066;2023-04-08T05:48:45;102270.16;;;7.87;100.00
65760;BME280;52496;51.082;5.066;2023-04-08T05:51:16;102270.75;;;7.90;100.00
65760;BME280;52496;51.082;5.066;2023-04-08T05:53:47;102270.47;;;7.93;100.00
65760;BME280;52496;51.082;5.066;2023-04-08T05:56:17;102271.06;;;7.97;100.00
65760;BME280;52496;51.082;5.066;2023-04-08T05:58:48;102277.00;;;8.00;100.00
65760;BME280;52496;51.082;5.066;2023-04-08T06:01:18;102281.19;;;8.03;100.00
65760;BME280;52496;51.082;5.066;2023-04-08T06:03:49;102274.63;;;8.07;100.00
65760;BME280;52496;51.082;5.066;2023-04-08T06:06:21;102281.81;;;8.16;100.00
65760;BME280;52496;51.082;5.066;2023-04-08T06:08:52;102277.63;;;8.23;100.00
65760;BME280;52496;51.082;5.066;2023-04-08T06:11:23;102281.44;;;8.31;100.00
65760;BME280;52496;51.082;5.066;2023-04-08T06:13:53;102277.16;;;8.39;100.00
65760;BME280;52496;51.082;5.066;2023-04-08T06:16:24;102290.53;;;8.49;100.00
65760;BME280;52496;51.082;5.066;2023-04-08T06:18:55;102288.59;;;8.61;100.00
65760;BME280;52496;51.082;5.066;2023-04-08T06:21:27;102293.00;;;8.71;100.00
65760;BME280;52496;51.082;5.066;2023-04-08T06:23:57;102296.50;;;8.82;100.00
65760;BME280;52496;51.082;5.066;2023-04-08T06:26:28;102300.06;;;8.92;100.00
65760;BME280;52496;51.082;5.066;2023-04-08T06:28:58;102301.63;;;9.04;100.00
65760;BME280;52496;51.082;5.066;2023-04-08T06:31:30;102304.03;;;9.17;100.00
65760;BME280;52496;51.082;5.066;2023-04-08T06:34:00;102309.22;;;9.28;100.00
65760;BME280;52496;51.082;5.066;2023-04-08T06:36:31;102312.88;;;9.37;100.00
65760;BME280;52496;51.082;5.066;2023-04-08T06:39:01;102314.69;;;9.46;100.00
65760;BME280;52496;51.082;5.066;2023-04-08T06:41:32;102315.53;;;9.56;100.00
65760;BME280;52496;51.082;5.066;2023-04-08T06:44:03;102327.34;;;9.63;100.00
65760;BME280;52496;51.082;5.066;2023-04-08T06:46:34;102326.78;;;9.70;100.00
65760;BME280;52496;51.082;5.066;2023-04-08T06:49:05;102329.28;;;9.81;100.00
65760;BME280;52496;51.082;5.066;2023-04-08T06:51:36;102333.78;;;9.90;100.00
65760;BME280;52496;51.082;5.066;2023-04-08T06:54:07;102348.81;;;9.91;100.00
65760;BME280;52496;51.082;5.066;2023-04-08T06:56:41;102340.09;;;9.99;100.00
65760;BME280;52496;51.082;5.066;2023-04-08T06:59:12;102342.75;;;10.08;100.00
65760;BME280;52496;51.082;5.066;2023-04-08T07:01:42;102347.22;;;10.18;100.00
65760;BME280;52496;51.082;5.066;2023-04-08T07:04:13;102352.00;;;10.24;100.00
65760;BME280;52496;51.082;5.066;2023-04-08T07:06:44;102352.00;;;10.24;100.00
65760;BME280;52496;51.082;5.066;2023-04-08T07:09:15;102350.91;;;10.26;100.00
65760;BME280;52496;51.082;5.066;2023-04-08T07:11:45;102355.94;;;10.29;100.00
65760;BME280;52496;51.082;5.066;2023-04-08T07:14:16;102361.59;;;10.26;100.00
65760;BME280;52496;51.082;5.066;2023-04-08T07:16:46;102360.28;;;10.21;100.00
65760;BME280;52496;51.082;5.066;2023-04-08T07:19:17;102361.00;;;10.23;100.00
65760;BME280;52496;51.082;5.066;2023-04-08T07:21:47;102370.69;;;10.33;100.00
65760;BME280;52496;51.082;5.066;2023-04-08T07:24:18;102373.06;;;10.46;100.00
65760;BME280;52496;51.082;5.066;2023-04-08T07:26:50;102373.03;;;10.56;100.00
65760;BME280;52496;51.082;5.066;2023-04-08T07:29:20;102378.63;;;10.63;100.00
65760;BME280;52496;51.082;5.066;2023-04-08T07:31:53;102382.69;;;10.67;100.00
65760;BME280;52496;51.082;5.066;2023-04-08T07:34:23;102383.69;;;10.66;100.00
65760;BME280;52496;51.082;5.066;2023-04-08T07:36:54;102387.63;;;10.62;100.00
65760;BME280;52496;51.082;5.066;2023-04-08T07:39:25;102391.72;;;10.66;100.00
65760;BME280;52496;51.082;5.066;2023-04-08T07:41:56;102385.06;;;10.70;100.00
65760;BME280;52496;51.082;5.066;2023-04-08T07:44:26;102394.78;;;10.71;100.00
65760;BME280;52496;51.082;5.066;2023-04-08T07:46:57;102385.38;;;10.67;100.00
65760;BME280;52496;51.082;5.066;2023-04-08T07:49:28;102399.03;;;10.64;100.00
65760;BME280;52496;51.082;5.066;2023-04-08T07:51:58;102392.69;;;10.65;100.00
65760;BME280;52496;51.082;5.066;2023-04-08T07:54:32;102402.41;;;10.66;100.00
65760;BME280;52496;51.082;5.066;2023-04-08T07:57:06;102404.81;;;10.69;100.00
65760;BME280;52496;51.082;5.066;2023-04-08T07:59:36;102400.84;;;10.73;100.00
65760;BME280;52496;51.082;5.066;2023-04-08T08:02:07;102408.16;;;10.81;100.00
65760;BME280;52496;51.082;5.066;2023-04-08T08:04:37;102401.84;;;10.99;100.00
65760;BME280;52496;51.082;5.066;2023-04-08T08:07:08;102407.78;;;11.21;100.00
65760;BME280;52496;51.082;5.066;2023-04-08T08:09:38;102400.00;;;11.45;100.00
65760;BME280;52496;51.082;5.066;2023-04-08T08:12:09;102404.88;;;11.50;100.00
65760;BME280;52496;51.082;5.066;2023-04-08T08:14:39;102407.44;;;11.52;100.00
65760;BME280;52496;51.082;5.066;2023-04-08T08:17:10;102412.25;;;11.48;100.00
65760;BME280;52496;51.082;5.066;2023-04-08T08:19:42;102414.31;;;11.36;100.00
65760;BME280;52496;51.082;5.066;2023-04-08T08:22:12;102413.38;;;11.28;100.00
65760;BME280;52496;51.082;5.066;2023-04-08T08:24:43;102410.16;;;11.24;100.00
65760;BME280;52496;51.082;5.066;2023-04-08T08:27:13;102414.59;;;11.33;100.00
65760;BME280;52496;51.082;5.066;2023-04-08T08:29:44;102421.56;;;11.44;100.00
65760;BME280;52496;51.082;5.066;2023-04-08T08:32:15;102420.06;;;11.59;100.00
65760;BME280;52496;51.082;5.066;2023-04-08T08:34:45;102421.38;;;11.73;100.00
65760;BME280;52496;51.082;5.066;2023-04-08T08:37:16;102422.00;;;11.85;100.00
65760;BME280;52496;51.082;5.066;2023-04-08T08:39:46;102418.94;;;11.98;100.00
65760;BME280;52496;51.082;5.066;2023-04-08T08:42:21;102428.09;;;12.13;100.00
65760;BME280;52496;51.082;5.066;2023-04-08T08:44:53;102420.97;;;12.22;100.00
65760;BME280;52496;51.082;5.066;2023-04-08T08:47:24;102425.19;;;12.24;100.00
65760;BME280;52496;51.082;5.066;2023-04-08T08:49:55;102430.53;;;12.24;100.00
65760;BME280;52496;51.082;5.066;2023-04-08T08:52:26;102434.50;;;12.20;100.00
65760;BME280;52496;51.082;5.066;2023-04-08T08:54:57;102430.56;;;12.06;100.00
65760;BME280;52496;51.082;5.066;2023-04-08T08:57:28;102434.50;;;11.94;100.00
65760;BME280;52496;51.082;5.066;2023-04-08T08:59:58;102437.47;;;11.91;100.00
65760;BME280;52496;51.082;5.066;2023-04-08T09:02:30;102450.63;;;11.84;100.00
65760;BME280;52496;51.082;5.066;2023-04-08T09:05:03;102440.31;;;11.89;100.00
65760;BME280;52496;51.082;5.066;2023-04-08T09:07:37;102444.91;;;11.97;100.00
65760;BME280;52496;51.082;5.066;2023-04-08T09:10:11;102438.22;;;12.01;100.00
65760;BME280;52496;51.082;5.066;2023-04-08T09:13:01;102448.13;;;12.01;100.00
65760;BME280;52496;51.082;5.066;2023-04-08T09:15:32;102450.78;;;12.01;100.00
65760;BME280;52496;51.082;5.066;2023-04-08T09:18:21;102446.34;;;12.09;100.00
65760;BME280;52496;51.082;5.066;2023-04-08T09:20:52;102446.44;;;12.18;100.00
65760;BME280;52496;51.082;5.066;2023-04-08T09:23:23;102449.97;;;12.26;100.00
65760;BME280;52496;51.082;5.066;2023-04-08T09:26:01;102459.16;;;12.42;100.00
65760;BME280;52496;51.082;5.066;2023-04-08T09:28:37;102449.00;;;12.53;100.00
65760;BME280;52496;51.082;5.066;2023-04-08T09:31:22;102455.25;;;12.54;100.00
65760;BME280;52496;51.082;5.066;2023-04-08T09:33:55;102449.78;;;12.72;100.00
65760;BME280;52496;51.082;5.066;2023-04-08T09:36:26;102449.06;;;12.96;100.00
65760;BME280;52496;51.082;5.066;2023-04-08T09:38:57;102448.34;;;13.20;100.00
65760;BME280;52496;51.082;5.066;2023-04-08T09:41:32;102444.59;;;13.47;100.00
65760;BME280;52496;51.082;5.066;2023-04-08T09:44:05;102450.97;;;13.54;100.00
65760;BME280;52496;51.082;5.066;2023-04-08T09:49:26;102446.31;;;13.64;97.45
65760;BME280;52496;51.082;5.066;2023-04-08T09:55:03;102452.03;;;13.77;95.06
65760;BME280;52496;51.082;5.066;2023-04-08T09:57:43;102448.63;;;13.51;95.26
65760;BME280;52496;51.082;5.066;2023-04-08T10:00:16;102459.66;;;13.31;96.61
65760;BME280;52496;51.082;5.066;2023-04-08T10:05:26;102448.34;;;13.20;97.32
65760;BME280;52496;51.082;5.066;2023-04-08T10:07:57;102439.75;;;13.16;96.82
65760;BME280;52496;51.082;5.066;2023-04-08T10:10:28;102454.34;;;13.14;96.72
65760;BME280;52496;51.082;5.066;2023-04-08T10:13:03;102451.34;;;13.08;95.31
65760;BME280;52496;51.082;5.066;2023-04-08T10:15:34;102445.75;;;13.02;95.52
65760;BME280;52496;51.082;5.066;2023-04-08T10:20:41;102449.59;;;12.99;94.90
65760;BME280;52496;51.082;5.066;2023-04-08T10:23:14;102447.78;;;13.08;95.25
65760;BME280;52496;51.082;5.066;2023-04-08T10:25:47;102456.53;;;13.10;93.18
65760;BME280;52496;51.082;5.066;2023-04-08T10:30:55;102448.63;;;13.43;91.73
65760;BME280;52496;51.082;5.066;2023-04-08T10:36:08;102450.19;;;14.43;92.98
65760;BME280;52496;51.082;5.066;2023-04-08T10:38:41;102444.09;;;15.13;88.84
65760;BME280;52496;51.082;5.066;2023-04-08T10:41:12;102450.31;;;15.45;82.17
65760;BME280;52496;51.082;5.066;2023-04-08T10:43:45;102448.63;;;15.52;82.82
65760;BME280;52496;51.082;5.066;2023-04-08T10:46:16;102456.28;;;15.64;80.38
65760;BME280;52496;51.082;5.066;2023-04-08T10:48:59;102454.41;;;15.95;77.95
65760;BME280;52496;51.082;5.066;2023-04-08T10:51:31;102447.94;;;16.04;75.94
65760;BME280;52496;51.082;5.066;2023-04-08T10:54:10;102445.75;;;16.00;79.54
65760;BME280;52496;51.082;5.066;2023-04-08T10:56:48;102450.09;;;15.86;77.98
65760;BME280;52496;51.082;5.066;2023-04-08T10:59:29;102441.13;;;15.71;79.52
65760;BME280;52496;51.082;5.066;2023-04-08T11:02:02;102443.44;;;15.74;79.79
65760;BME280;52496;51.082;5.066;2023-04-08T11:04:32;102444.91;;;15.53;78.57
65760;BME280;52496;51.082;5.066;2023-04-08T11:07:04;102451.13;;;15.54;79.52
65760;BME280;52496;51.082;5.066;2023-04-08T11:09:36;102456.50;;;15.85;76.74
65760;BME280;52496;51.082;5.066;2023-04-08T11:12:07;102452.50;;;16.04;77.01
65760;BME280;52496;51.082;5.066;2023-04-08T11:14:39;102449.22;;;16.32;79.87
65760;BME280;52496;51.082;5.066;2023-04-08T11:17:10;102450.91;;;16.47;76.56
65760;BME280;52496;51.082;5.066;2023-04-08T11:19:42;102454.13;;;16.28;78.40
65760;BME280;52496;51.082;5.066;2023-04-08T11:22:12;102446.97;;;15.97;76.92
65760;BME280;52496;51.082;5.066;2023-04-08T11:24:43;102448.75;;;15.59;77.38
65760;BME280;52496;51.082;5.066;2023-04-08T11:27:14;102441.50;;;15.28;78.76
65760;BME280;52496;51.082;5.066;2023-04-08T11:29:45;102447.13;;;15.19;79.15
65760;BME280;52496;51.082;5.066;2023-04-08T11:32:16;102438.09;;;15.34;80.06
65760;BME280;52496;51.082;5.066;2023-04-08T11:34:47;102439.19;;;15.48;78.04
65760;BME280;52496;51.082;5.066;2023-04-08T11:37:17;102444.19;;;15.28;76.21
65760;BME280;52496;51.082;5.066;2023-04-08T11:39:48;102437.94;;;14.97;76.95
65760;BME280;52496;51.082;5.066;2023-04-08T11:42:29;102443.16;;;14.98;74.98
65760;BME280;52496;51.082;5.066;2023-04-08T11:44:59;102436.78;;;14.91;75.86
65760;BME280;52496;51.082;5.066;2023-04-08T11:47:31;102431.50;;;15.06;77.78
65760;BME280;52496;51.082;5.066;2023-04-08T11:50:03;102436.50;;;15.48;76.27
65760;BME280;52496;51.082;5.066;2023-04-08T11:52:48;102436.88;;;15.91;71.64
65760;BME280;52496;51.082;5.066;2023-04-08T11:55:26;102440.13;;;16.10;72.02
65760;BME280;52496;51.082;5.066;2023-04-08T11:58:06;102439.25;;;16.32;71.84
65760;BME280;52496;51.082;5.066;2023-04-08T12:00:37;102438.69;;;16.51;72.85
65760;BME280;52496;51.082;5.066;2023-04-08T12:03:08;102441.06;;;16.84;72.54
65760;BME280;52496;51.082;5.066;2023-04-08T12:05:38;102437.09;;;17.31;70.39
65760;BME280;52496;51.082;5.066;2023-04-08T12:08:10;102435.19;;;17.47;66.58
65760;BME280;52496;51.082;5.066;2023-04-08T12:10:40;102429.72;;;17.61;64.18
65760;BME280;52496;51.082;5.066;2023-04-08T12:13:11;102430.41;;;17.85;61.32
65760;BME280;52496;51.082;5.066;2023-04-08T12:15:41;102423.53;;;18.10;63.80
65760;BME280;52496;51.082;5.066;2023-04-08T12:18:12;102426.00;;;18.33;63.07
65760;BME280;52496;51.082;5.066;2023-04-08T12:20:42;102419.31;;;18.64;61.08
65760;BME280;52496;51.082;5.066;2023-04-08T12:23:13;102429.03;;;18.80;58.65
65760;BME280;52496;51.082;5.066;2023-04-08T12:25:44;102416.00;;;18.97;58.50
65760;BME280;52496;51.082;5.066;2023-04-08T12:28:14;102414.88;;;18.85;57.34
65760;BME280;52496;51.082;5.066;2023-04-08T12:30:46;102412.22;;;18.56;59.17
65760;BME280;52496;51.082;5.066;2023-04-08T12:33:17;102403.69;;;18.60;57.09
65760;BME280;52496;51.082;5.066;2023-04-08T12:35:48;102410.28;;;18.22;58.66
65760;BME280;52496;51.082;5.066;2023-04-08T12:38:18;102410.59;;;18.06;59.89
65760;BME280;52496;51.082;5.066;2023-04-08T12:40:50;102403.16;;;18.15;59.93
65760;BME280;52496;51.082;5.066;2023-04-08T12:43:23;102405.19;;;18.06;60.51
65760;BME280;52496;51.082;5.066;2023-04-08T12:45:54;102400.28;;;17.73;59.71
65760;BME280;52496;51.082;5.066;2023-04-08T12:48:24;102405.69;;;17.73;58.29
65760;BME280;52496;51.082;5.066;2023-04-08T12:50:55;102395.66;;;17.88;58.07
65760;BME280;52496;51.082;5.066;2023-04-08T12:53:27;102392.47;;;18.34;56.81
65760;BME280;52496;51.082;5.066;2023-04-08T12:55:58;102395.09;;;18.56;56.11
65760;BME280;52496;51.082;5.066;2023-04-08T12:58:28;102390.88;;;18.75;55.21
65760;BME280;52496;51.082;5.066;2023-04-08T13:01:02;102388.31;;;19.08;57.04
65760;BME280;52496;51.082;5.066;2023-04-08T13:03:33;102388.19;;;19.43;54.28
65760;BME280;52496;51.082;5.066;2023-04-08T13:06:05;102387.13;;;19.44;51.99
65760;BME280;52496;51.082;5.066;2023-04-08T13:08:39;102382.13;;;19.47;52.44
65760;BME280;52496;51.082;5.066;2023-04-08T13:11:10;102381.53;;;19.65;52.61
65760;BME280;52496;51.082;5.066;2023-04-08T13:13:41;102388.19;;;19.56;52.07
65760;BME280;52496;51.082;5.066;2023-04-08T13:16:12;102393.81;;;18.87;51.69
65760;BME280;52496;51.082;5.066;2023-04-08T13:18:46;102386.75;;;18.51;52.96
65760;BME280;52496;51.082;5.066;2023-04-08T13:21:17;102389.94;;;18.61;51.81
65760;BME280;52496;51.082;5.066;2023-04-08T13:23:47;102391.50;;;18.77;49.37
65760;BME280;52496;51.082;5.066;2023-04-08T13:26:18;102385.38;;;19.16;50.00
65760;BME280;52496;51.082;5.066;2023-04-08T13:28:48;102389.69;;;19.65;46.14
65760;BME280;52496;51.082;5.066;2023-04-08T13:31:21;102384.28;;;19.79;46.60